sensor_id;sensor_type;location;lat;lon;timestamp;pressure;altitude;pressure_sealevel;temperature;humidity
40850;BME280;26571;41.610;25.380;2022-11-30T00:02:20;98535.72;;;8.33;98.83
40850;BME280;26571;41.610;25.380;2022-11-30T00:04:46;98534.16;;;8.22;99.34
40850;BME280;26571;41.610;25.380;2022-11-30T00:07:11;98517.28;;;8.07;99.09
40850;BME280;26571;41.610;25.380;2022-11-30T00:09:37;98527.78;;;8.25;99.12
40850;BME280;26571;41.610;25.380;2022-11-30T00:12:02;98479.19;;;7.85;99.58
40850;BME280;26571;41.610;25.380;2022-11-30T00:14:28;98526.13;;;8.24;99.73
40850;BME280;26571;41.610;25.380;2022-11-30T00:16:53;98524.66;;;8.21;99.69
40850;BME280;26571;41.610;25.380;2022-11-30T00:19:18;98532.88;;;8.26;99.07
40850;BME280;26571;41.610;25.380;2022-11-30T00:21:44;98526.94;;;8.24;99.74
40850;BME280;26571;41.610;25.380;2022-11-30T00:24:09;98517.16;;;8.26;99.32
40850;BME280;26571;41.610;25.380;2022-11-30T00:26:35;98525.03;;;8.26;99.68
40850;BME280;26571;41.610;25.380;2022-11-30T00:29:00;98528.31;;;8.28;98.89
40850;BME280;26571;41.610;25.380;2022-11-30T00:31:26;98525.03;;;8.26;99.07
40850;BME280;26571;41.610;25.380;2022-11-30T00:33:51;98529.00;;;8.31;98.73
40850;BME280;26571;41.610;25.380;2022-11-30T00:36:19;98536.00;;;8.30;99.27
40850;BME280;26571;41.610;25.380;2022-11-30T00:38:45;98537.53;;;8.33;99.39
40850;BME280;26571;41.610;25.380;2022-11-30T00:41:11;98518.41;;;8.22;99.40
40850;BME280;26571;41.610;25.380;2022-11-30T00:43:36;98538.19;;;8.35;99.28
40850;BME280;26571;41.610;25.380;2022-11-30T00:46:02;98533.78;;;8.35;99.12
40850;BME280;26571;41.610;25.380;2022-11-30T00:48:28;98525.41;;;8.32;99.60
40850;BME280;26571;41.610;25.380;2022-11-30T00:50:53;98526.50;;;8.29;99.67
40850;BME280;26571;41.610;25.380;2022-11-30T00:53:19;98525.41;;;8.32;99.53
40850;BME280;26571;41.610;25.380;2022-11-30T00:55:46;98518.03;;;8.35;99.38
40850;BME280;26571;41.610;25.380;2022-11-30T00:58:12;98523.03;;;8.38;99.11
40850;BME280;26571;41.610;25.380;2022-11-30T01:00:37;98511.09;;;8.26;99.37
40850;BME280;26571;41.610;25.380;2022-11-30T01:03:02;98519.16;;;8.33;99.76
40850;BME280;26571;41.610;25.380;2022-11-30T01:05:28;98505.69;;;8.27;99.66
40850;BME280;26571;41.610;25.380;2022-11-30T01:07:54;98510.31;;;8.34;99.51
40850;BME280;26571;41.610;25.380;2022-11-30T01:10:19;98527.69;;;8.35;99.48
40850;BME280;26571;41.610;25.380;2022-11-30T01:12:46;98520.41;;;8.38;99.54
40850;BME280;26571;41.610;25.380;2022-11-30T01:15:12;98470.53;;;8.02;99.73
40850;BME280;26571;41.610;25.380;2022-11-30T01:17:37;98514.53;;;8.26;99.71
40850;BME280;26571;41.610;25.380;2022-11-30T01:20:04;98513.00;;;8.24;100.00
40850;BME280;26571;41.610;25.380;2022-11-30T01:22:30;98515.19;;;8.28;100.00
40850;BME280;26571;41.610;25.380;2022-11-30T01:24:55;98504.16;;;8.25;100.00
40850;BME280;26571;41.610;25.380;2022-11-30T01:27:21;98508.03;;;8.31;100.00
40850;BME280;26571;41.610;25.380;2022-11-30T01:29:46;98498.47;;;8.29;99.64
40850;BME280;26571;41.610;25.380;2022-11-30T01:32:12;98485.31;;;8.21;100.00
40850;BME280;26571;41.610;25.380;2022-11-30T01:34:37;98495.72;;;8.31;99.58
40850;BME280;26571;41.610;25.380;2022-11-30T01:37:02;98493.84;;;8.23;99.89
40850;BME280;26571;41.610;25.380;2022-11-30T01:39:28;98493.22;;;8.29;100.00
40850;BME280;26571;41.610;25.380;2022-11-30T01:41:53;98488.88;;;8.20;100.00
40850;BME280;26571;41.610;25.380;2022-11-30T01:49:26;98489.66;;;8.31;99.96
40850;BME280;26571;41.610;25.380;2022-11-30T01:52:02;98501.09;;;8.29;100.00
40850;BME280;26571;41.610;25.380;2022-11-30T01:54:32;98490.31;;;8.33;100.00
40850;BME280;26571;41.610;25.380;2022-11-30T01:57:03;98491.31;;;8.32;99.73
40850;BME280;26571;41.610;25.380;2022-11-30T01:59:30;98498.19;;;8.33;99.95
40850;BME280;26571;41.610;25.380;2022-11-30T02:01:55;98496.84;;;8.28;100.00
40850;BME280;26571;41.610;25.380;2022-11-30T02:04:25;98499.84;;;8.34;100.00
40850;BME280;26571;41.610;25.380;2022-11-30T02:06:53;98491.22;;;8.23;99.75
40850;BME280;26571;41.610;25.380;2022-11-30T02:09:20;98497.03;;;8.35;99.93
40850;BME280;26571;41.610;25.380;2022-11-30T02:11:47;98484.53;;;8.29;100.00
40850;BME280;26571;41.610;25.380;2022-11-30T02:14:38;98493.75;;;8.33;99.80
40850;BME280;26571;41.610;25.380;2022-11-30T02:17:31;98491.31;;;8.32;100.00
40850;BME280;26571;41.610;25.380;2022-11-30T02:30:24;98513.19;;;8.22;99.92
40850;BME280;26571;41.610;25.380;2022-11-30T02:35:28;98511.28;;;8.15;100.00
40850;BME280;26571;41.610;25.380;2022-11-30T02:37:56;98505.22;;;8.14;100.00
40850;BME280;26571;41.610;25.380;2022-11-30T02:40:22;98515.03;;;8.30;100.00
40850;BME280;26571;41.610;25.380;2022-11-30T02:42:51;98505.53;;;8.29;100.00
40850;BME280;26571;41.610;25.380;2022-11-30T02:45:23;98515.41;;;8.35;100.00
40850;BME280;26571;41.610;25.380;2022-11-30T02:47:58;98517.22;;;8.35;99.72
40850;BME280;26571;41.610;25.380;2022-11-30T02:50:52;98507.28;;;8.38;99.77
40850;BME280;26571;41.610;25.380;2022-11-30T02:53:19;98501.50;;;8.17;100.00
40850;BME280;26571;41.610;25.380;2022-11-30T02:55:45;98509.72;;;8.22;100.00
40850;BME280;26571;41.610;25.380;2022-11-30T02:58:11;98513.25;;;8.31;100.00
40850;BME280;26571;41.610;25.380;2022-11-30T03:00:39;98513.00;;;8.24;100.00
40850;BME280;26571;41.610;25.380;2022-11-30T03:03:04;98516.72;;;8.31;100.00
40850;BME280;26571;41.610;25.380;2022-11-30T03:05:30;98524.88;;;8.28;100.00
40850;BME280;26571;41.610;25.380;2022-11-30T03:07:55;98523.06;;;8.28;100.00
40850;BME280;26571;41.610;25.380;2022-11-30T03:10:21;98526.94;;;8.24;100.00
40850;BME280;26571;41.610;25.380;2022-11-30T03:12:46;98512.09;;;8.15;100.00
40850;BME280;26571;41.610;25.380;2022-11-30T03:15:12;98531.25;;;8.25;100.00
40850;BME280;26571;41.610;25.380;2022-11-30T03:17:37;98530.28;;;8.26;100.00
40850;BME280;26571;41.610;25.380;2022-11-30T03:20:03;98525.69;;;8.28;99.66
40850;BME280;26571;41.610;25.380;2022-11-30T03:22:29;98527.78;;;8.25;99.85
40850;BME280;26571;41.610;25.380;2022-11-30T03:24:54;98529.72;;;8.23;99.97
40850;BME280;26571;41.610;25.380;2022-11-30T03:27:20;98527.66;;;8.26;100.00
40850;BME280;26571;41.610;25.380;2022-11-30T03:29:45;98535.34;;;8.28;100.00
40850;BME280;26571;41.610;25.380;2022-11-30T03:32:11;98523.66;;;8.22;99.65
40850;BME280;26571;41.610;25.380;2022-11-30T03:34:36;98530.56;;;8.23;99.42
40850;BME280;26571;41.610;25.380;2022-11-30T03:37:02;98524.66;;;8.21;99.83
40850;BME280;26571;41.610;25.380;2022-11-30T03:39:27;98534.97;;;8.23;100.00
40850;BME280;26571;41.610;25.380;2022-11-30T03:41:52;98539.41;;;8.22;99.67
40850;BME280;26571;41.610;25.380;2022-11-30T03:44:18;98538.81;;;8.11;99.58
40850;BME280;26571;41.610;25.380;2022-11-30T03:46:43;98492.41;;;7.93;99.53
40850;BME280;26571;41.610;25.380;2022-11-30T03:49:09;98538.72;;;8.20;100.00
40850;BME280;26571;41.610;25.380;2022-11-30T03:51:34;98532.50;;;8.21;99.37
40850;BME280;26571;41.610;25.380;2022-11-30T03:54:00;98537.88;;;8.20;98.99
40850;BME280;26571;41.610;25.380;2022-11-30T03:56:25;98536.25;;;8.19;99.02
40850;BME280;26571;41.610;25.380;2022-11-30T03:58:51;98544.94;;;8.19;99.19
40850;BME280;26571;41.610;25.380;2022-11-30T04:01:18;98524.22;;;7.98;99.16
40850;BME280;26571;41.610;25.380;2022-11-30T04:03:46;98516.66;;;7.95;99.33
40850;BME280;26571;41.610;25.380;2022-11-30T04:06:12;98557.91;;;8.21;98.56
40850;BME280;26571;41.610;25.380;2022-11-30T04:08:39;98559.56;;;8.22;98.70
40850;BME280;26571;41.610;25.380;2022-11-30T04:11:05;98562.91;;;8.14;98.34
40850;BME280;26571;41.610;25.380;2022-11-30T04:13:32;98559.31;;;8.15;98.36
40850;BME280;26571;41.610;25.380;2022-11-30T04:15:58;98557.22;;;8.19;98.47
40850;BME280;26571;41.610;25.380;2022-11-30T04:18:26;98559.84;;;8.19;98.88
40850;BME280;26571;41.610;25.380;2022-11-30T04:20:53;98555.72;;;8.16;98.69
40850;BME280;26571;41.610;25.380;2022-11-30T04:23:19;98570.50;;;8.17;98.47
40850;BME280;26571;41.610;25.380;2022-11-30T04:25:45;98566.78;;;8.10;98.75
40850;BME280;26571;41.610;25.380;2022-11-30T04:28:13;98559.03;;;8.18;98.28
40850;BME280;26571;41.610;25.380;2022-11-30T04:30:38;98565.47;;;8.06;99.03
40850;BME280;26571;41.610;25.380;2022-11-30T04:33:04;98562.41;;;8.11;99.13
40850;BME280;26571;41.610;25.380;2022-11-30T04:35:30;98536.03;;;7.85;99.06
40850;BME280;26571;41.610;25.380;2022-11-30T04:37:56;98562.69;;;8.08;99.08
40850;BME280;26571;41.610;25.380;2022-11-30T04:40:22;98566.50;;;8.13;99.24
40850;BME280;26571;41.610;25.380;2022-11-30T04:42:47;98569.78;;;8.15;99.37
40850;BME280;26571;41.610;25.380;2022-11-30T04:45:13;98561.53;;;8.10;99.00
40850;BME280;26571;41.610;25.380;2022-11-30T04:47:38;98561.09;;;8.15;99.38
40850;BME280;26571;41.610;25.380;2022-11-30T04:50:05;98556.84;;;8.14;99.13
40850;BME280;26571;41.610;25.380;2022-11-30T04:52:30;98564.53;;;8.15;98.76
40850;BME280;26571;41.610;25.380;2022-11-30T04:54:56;98571.22;;;8.10;99.46
40850;BME280;26571;41.610;25.380;2022-11-30T04:57:22;98564.75;;;8.04;99.49
40850;BME280;26571;41.610;25.380;2022-11-30T04:59:48;98572.03;;;8.10;99.49
40850;BME280;26571;41.610;25.380;2022-11-30T05:02:13;98582.25;;;8.13;99.52
40850;BME280;26571;41.610;25.380;2022-11-30T05:04:39;98583.75;;;8.16;99.29
40850;BME280;26571;41.610;25.380;2022-11-30T05:07:05;98582.53;;;8.10;99.74
40850;BME280;26571;41.610;25.380;2022-11-30T05:09:31;98584.19;;;8.11;99.55
40850;BME280;26571;41.610;25.380;2022-11-30T05:11:56;98589.44;;;8.11;99.52
40850;BME280;26571;41.610;25.380;2022-11-30T05:14:22;98586.13;;;8.09;99.28
40850;BME280;26571;41.610;25.380;2022-11-30T05:16:48;98586.13;;;8.09;99.97
40850;BME280;26571;41.610;25.380;2022-11-30T05:19:13;98590.00;;;8.05;100.00
40850;BME280;26571;41.610;25.380;2022-11-30T05:21:40;98600.22;;;8.08;99.52
40850;BME280;26571;41.610;25.380;2022-11-30T05:24:06;98512.47;;;7.57;99.75
40850;BME280;26571;41.610;25.380;2022-11-30T05:26:31;98606.50;;;8.15;99.31
40850;BME280;26571;41.610;25.380;2022-11-30T05:28:56;98601.72;;;8.11;99.49
40850;BME280;26571;41.610;25.380;2022-11-30T05:31:22;98611.91;;;8.14;99.24
40850;BME280;26571;41.610;25.380;2022-11-30T05:33:51;98603.81;;;8.07;99.69
40850;BME280;26571;41.610;25.380;2022-11-30T05:36:17;98609.81;;;8.17;98.90
40850;BME280;26571;41.610;25.380;2022-11-30T05:38:43;98609.13;;;8.15;99.05
40850;BME280;26571;41.610;25.380;2022-11-30T05:41:08;98616.72;;;8.18;98.59
40850;BME280;26571;41.610;25.380;2022-11-30T05:43:34;98612.22;;;8.11;98.92
40850;BME280;26571;41.610;25.380;2022-11-30T05:46:04;98606.66;;;8.14;98.61
40850;BME280;26571;41.610;25.380;2022-11-30T05:48:30;98619.22;;;8.10;98.70
40850;BME280;26571;41.610;25.380;2022-11-30T05:51:04;98613.97;;;8.10;98.92
40850;BME280;26571;41.610;25.380;2022-11-30T05:53:30;98610.84;;;8.07;98.62
40850;BME280;26571;41.610;25.380;2022-11-30T05:56:00;98616.38;;;8.03;98.79
40850;BME280;26571;41.610;25.380;2022-11-30T05:58:26;98625.44;;;8.09;98.69
40850;BME280;26571;41.610;25.380;2022-11-30T06:00:52;98616.91;;;8.07;98.74
40850;BME280;26571;41.610;25.380;2022-11-30T06:03:17;98621.34;;;8.07;98.53
40850;BME280;26571;41.610;25.380;2022-11-30T06:05:42;98615.78;;;8.10;98.82
40850;BME280;26571;41.610;25.380;2022-11-30T06:08:08;98610.97;;;8.05;98.80
40850;BME280;26571;41.610;25.380;2022-11-30T06:10:33;98614.28;;;8.07;99.15
40850;BME280;26571;41.610;25.380;2022-11-30T06:13:05;98622.31;;;8.06;99.27
40850;BME280;26571;41.610;25.380;2022-11-30T06:15:30;98636.69;;;8.01;99.55
40850;BME280;26571;41.610;25.380;2022-11-30T06:17:56;98634.97;;;8.10;99.17
40850;BME280;26571;41.610;25.380;2022-11-30T06:20:21;98638.88;;;8.06;99.40
40850;BME280;26571;41.610;25.380;2022-11-30T06:22:47;98631.66;;;8.08;99.22
40850;BME280;26571;41.610;25.380;2022-11-30T06:25:12;98637.19;;;8.05;99.44
40850;BME280;26571;41.610;25.380;2022-11-30T06:27:39;98652.38;;;8.11;99.36
40850;BME280;26571;41.610;25.380;2022-11-30T06:30:05;98643.81;;;8.09;99.39
40850;BME280;26571;41.610;25.380;2022-11-30T06:32:30;98641.50;;;8.06;99.12
40850;BME280;26571;41.610;25.380;2022-11-30T06:34:56;98647.41;;;8.08;99.70
40850;BME280;26571;41.610;25.380;2022-11-30T06:37:21;98652.06;;;8.14;99.41
40850;BME280;26571;41.610;25.380;2022-11-30T06:39:46;98649.19;;;8.08;99.72
40850;BME280;26571;41.610;25.380;2022-11-30T06:42:12;98655.53;;;8.05;99.56
40850;BME280;26571;41.610;25.380;2022-11-30T06:44:37;98646.81;;;8.14;98.84
40850;BME280;26571;41.610;25.380;2022-11-30T06:47:03;98658.66;;;8.18;98.62
40850;BME280;26571;41.610;25.380;2022-11-30T06:49:28;98650.25;;;8.15;98.39
40850;BME280;26571;41.610;25.380;2022-11-30T06:51:53;98629.19;;;8.07;98.38
40850;BME280;26571;41.610;25.380;2022-11-30T06:54:19;98648.47;;;8.15;98.31
40850;BME280;26571;41.610;25.380;2022-11-30T06:56:44;98641.28;;;8.17;98.04
40850;BME280;26571;41.610;25.380;2022-11-30T06:59:10;98555.34;;;7.56;97.51
40850;BME280;26571;41.610;25.380;2022-11-30T07:01:35;98653.44;;;8.18;97.03
40850;BME280;26571;41.610;25.380;2022-11-30T07:04:00;98645.75;;;8.07;97.74
40850;BME280;26571;41.610;25.380;2022-11-30T07:06:26;98671.63;;;8.20;97.77
40850;BME280;26571;41.610;25.380;2022-11-30T07:08:51;98670.81;;;8.19;98.08
40850;BME280;26571;41.610;25.380;2022-11-30T07:11:16;98667.91;;;8.22;97.36
40850;BME280;26571;41.610;25.380;2022-11-30T07:13:42;98674.94;;;8.22;97.51
40850;BME280;26571;41.610;25.380;2022-11-30T07:16:10;98675.50;;;8.25;97.74
40850;BME280;26571;41.610;25.380;2022-11-30T07:18:36;98667.75;;;8.24;97.58
40850;BME280;26571;41.610;25.380;2022-11-30T07:21:03;98672.44;;;8.20;98.11
40850;BME280;26571;41.610;25.380;2022-11-30T07:23:29;98667.63;;;8.25;98.00
40850;BME280;26571;41.610;25.380;2022-11-30T07:26:14;98669.25;;;7.99;97.76
40850;BME280;26571;41.610;25.380;2022-11-30T07:28:43;98674.25;;;8.20;97.45
40850;BME280;26571;41.610;25.380;2022-11-30T07:31:30;98665.44;;;8.21;97.95
40850;BME280;26571;41.610;25.380;2022-11-30T07:33:57;98627.00;;;8.02;97.45
40850;BME280;26571;41.610;25.380;2022-11-30T07:36:26;98661.69;;;8.23;98.01
40850;BME280;26571;41.610;25.380;2022-11-30T07:38:51;98665.66;;;8.27;97.77
40850;BME280;26571;41.610;25.380;2022-11-30T07:41:17;98659.75;;;8.25;97.91
40850;BME280;26571;41.610;25.380;2022-11-30T07:43:42;98619.03;;;7.94;98.06
40850;BME280;26571;41.610;25.380;2022-11-30T07:46:12;98666.25;;;8.21;97.66
40850;BME280;26571;41.610;25.380;2022-11-30T07:48:38;98667.75;;;8.24;98.07
40850;BME280;26571;41.610;25.380;2022-11-30T07:51:11;98677.38;;;8.33;97.73
40850;BME280;26571;41.610;25.380;2022-11-30T07:53:36;98671.31;;;8.33;97.03
40850;BME280;26571;41.610;25.380;2022-11-30T07:56:07;98665.28;;;8.22;97.94
40850;BME280;26571;41.610;25.380;2022-11-30T07:58:33;98675.78;;;8.22;97.78
40850;BME280;26571;41.610;25.380;2022-11-30T08:03:27;98671.78;;;8.18;97.50
40850;BME280;26571;41.610;25.380;2022-11-30T08:05:53;98671.06;;;8.26;97.82
40850;BME280;26571;41.610;25.380;2022-11-30T08:08:18;98635.16;;;7.99;97.43
40850;BME280;26571;41.610;25.380;2022-11-30T08:10:43;98684.03;;;8.27;96.89
40850;BME280;26571;41.610;25.380;2022-11-30T08:13:09;98685.69;;;8.28;97.29
40850;BME280;26571;41.610;25.380;2022-11-30T08:15:34;98680.44;;;8.28;96.62
40850;BME280;26571;41.610;25.380;2022-11-30T08:17:59;98678.78;;;8.27;96.96
40850;BME280;26571;41.610;25.380;2022-11-30T08:20:29;98673.84;;;8.15;96.73
40850;BME280;26571;41.610;25.380;2022-11-30T08:22:54;98691.22;;;8.25;96.89
40850;BME280;26571;41.610;25.380;2022-11-30T08:25:22;98684.31;;;8.24;96.85
40850;BME280;26571;41.610;25.380;2022-11-30T08:27:47;98684.84;;;8.28;96.81
40850;BME280;26571;41.610;25.380;2022-11-30T08:30:13;98685.81;;;8.27;96.90
40850;BME280;26571;41.610;25.380;2022-11-30T08:32:38;98661.56;;;8.15;96.45
40850;BME280;26571;41.610;25.380;2022-11-30T08:35:04;98680.44;;;8.28;96.85
40850;BME280;26571;41.610;25.380;2022-11-30T08:37:29;98678.78;;;8.27;96.97
40850;BME280;26571;41.610;25.380;2022-11-30T08:39:55;98684.41;;;8.33;97.06
40850;BME280;26571;41.610;25.380;2022-11-30T08:42:20;98683.44;;;8.34;96.89
40850;BME280;26571;41.610;25.380;2022-11-30T08:44:45;98683.44;;;8.34;97.08
40850;BME280;26571;41.610;25.380;2022-11-30T08:47:12;98667.03;;;8.32;96.84
40850;BME280;26571;41.610;25.380;2022-11-30T08:49:37;98673.66;;;8.36;96.27
40850;BME280;26571;41.610;25.380;2022-11-30T08:52:03;98678.75;;;8.37;96.75
40850;BME280;26571;41.610;25.380;2022-11-30T08:54:28;98672.69;;;8.37;96.02
40850;BME280;26571;41.610;25.380;2022-11-30T08:56:54;98672.38;;;8.40;96.23
40850;BME280;26571;41.610;25.380;2022-11-30T08:59:19;98657.53;;;8.31;96.05
40850;BME280;26571;41.610;25.380;2022-11-30T09:01:44;98642.66;;;8.21;96.15
40850;BME280;26571;41.610;25.380;2022-11-30T09:04:10;98661.59;;;8.43;95.63
40850;BME280;26571;41.610;25.380;2022-11-30T09:06:35;98623.03;;;8.25;95.68
40850;BME280;26571;41.610;25.380;2022-11-30T09:09:01;98652.22;;;8.40;95.75
40850;BME280;26571;41.610;25.380;2022-11-30T09:11:29;98653.91;;;8.41;96.02
40850;BME280;26571;41.610;25.380;2022-11-30T09:13:56;98666.47;;;8.38;96.18
40850;BME280;26571;41.610;25.380;2022-11-30T09:16:22;98652.75;;;8.44;95.63
40850;BME280;26571;41.610;25.380;2022-11-30T09:18:48;98656.97;;;8.37;96.15
40850;BME280;26571;41.610;25.380;2022-11-30T09:21:17;98651.97;;;8.34;96.26
40850;BME280;26571;41.610;25.380;2022-11-30T09:23:45;98653.34;;;8.38;96.33
40850;BME280;26571;41.610;25.380;2022-11-30T09:26:12;98658.31;;;8.41;96.73
40850;BME280;26571;41.610;25.380;2022-11-30T09:28:37;98657.63;;;8.39;96.63
40850;BME280;26571;41.610;25.380;2022-11-30T09:31:10;98660.41;;;8.37;96.10
40850;BME280;26571;41.610;25.380;2022-11-30T09:33:36;98662.44;;;8.34;96.57
40850;BME280;26571;41.610;25.380;2022-11-30T09:36:04;98653.59;;;8.35;96.60
40850;BME280;26571;41.610;25.380;2022-11-30T09:38:30;98650.97;;;8.35;96.34
40850;BME280;26571;41.610;25.380;2022-11-30T09:40:58;98655.28;;;8.36;95.99
40850;BME280;26571;41.610;25.380;2022-11-30T09:46:01;98651.41;;;8.40;95.57
40850;BME280;26571;41.610;25.380;2022-11-30T09:51:10;98652.22;;;8.40;95.60
40850;BME280;26571;41.610;25.380;2022-11-30T09:53:42;98646.69;;;8.43;96.05
40850;BME280;26571;41.610;25.380;2022-11-30T09:56:31;98654.41;;;8.45;95.38
40850;BME280;26571;41.610;25.380;2022-11-30T09:59:05;98648.38;;;8.35;95.42
40850;BME280;26571;41.610;25.380;2022-11-30T10:01:32;98654.91;;;8.31;94.96
40850;BME280;26571;41.610;25.380;2022-11-30T10:04:01;98648.94;;;8.28;94.70
40850;BME280;26571;41.610;25.380;2022-11-30T10:06:42;98648.56;;;8.23;94.46
40850;BME280;26571;41.610;25.380;2022-11-30T10:12:26;98638.94;;;8.14;95.50
40850;BME280;26571;41.610;25.380;2022-11-30T10:26:08;98653.81;;;7.96;96.30
40850;BME280;26571;41.610;25.380;2022-11-30T10:28:53;98656.13;;;7.99;95.78
40850;BME280;26571;41.610;25.380;2022-11-30T10:31:33;98657.97;;;7.89;96.66
40850;BME280;26571;41.610;25.380;2022-11-30T10:34:19;98662.63;;;7.95;97.46
40850;BME280;26571;41.610;25.380;2022-11-30T10:37:34;98657.09;;;7.98;97.00
40850;BME280;26571;41.610;25.380;2022-11-30T10:42:33;98637.78;;;7.99;96.54
40850;BME280;26571;41.610;25.380;2022-11-30T10:45:08;98641.88;;;8.11;96.52
40850;BME280;26571;41.610;25.380;2022-11-30T10:47:38;98637.19;;;8.05;96.53
40850;BME280;26571;41.610;25.380;2022-11-30T10:50:12;98633.63;;;8.06;96.62
40850;BME280;26571;41.610;25.380;2022-11-30T10:52:47;98645.75;;;8.07;96.88
40850;BME280;26571;41.610;25.380;2022-11-30T10:55:21;98627.28;;;7.99;96.76
40850;BME280;26571;41.610;25.380;2022-11-30T10:57:52;98631.28;;;8.03;97.03
40850;BME280;26571;41.610;25.380;2022-11-30T11:00:20;98641.97;;;7.92;96.21
40850;BME280;26571;41.610;25.380;2022-11-30T11:05:26;98633.16;;;7.83;97.61
40850;BME280;26571;41.610;25.380;2022-11-30T11:07:58;98633.56;;;7.88;97.32
40850;BME280;26571;41.610;25.380;2022-11-30T11:13:00;98627.06;;;7.92;97.44
40850;BME280;26571;41.610;25.380;2022-11-30T11:15:31;98630.94;;;7.88;97.66
40850;BME280;26571;41.610;25.380;2022-11-30T11:20:40;98632.84;;;7.96;97.71
40850;BME280;26571;41.610;25.380;2022-11-30T11:23:33;98632.25;;;8.02;97.67
40850;BME280;26571;41.610;25.380;2022-11-30T11:25:59;98636.38;;;8.04;97.42
40850;BME280;26571;41.610;25.380;2022-11-30T11:28:25;98608.34;;;7.77;97.52
40850;BME280;26571;41.610;25.380;2022-11-30T11:30:52;98635.50;;;7.86;97.34
40850;BME280;26571;41.610;25.380;2022-11-30T11:33:22;98626.22;;;7.92;98.08
40850;BME280;26571;41.610;25.380;2022-11-30T11:41:00;98635.59;;;7.94;97.83
40850;BME280;26571;41.610;25.380;2022-11-30T11:43:29;98641.66;;;7.95;98.21
40850;BME280;26571;41.610;25.380;2022-11-30T11:46:01;98637.78;;;7.99;98.04
40850;BME280;26571;41.610;25.380;2022-11-30T11:48:40;98627.22;;;7.91;97.66
40850;BME280;26571;41.610;25.380;2022-11-30T11:51:09;98640.94;;;8.02;97.89
40850;BME280;26571;41.610;25.380;2022-11-30T11:56:16;98644.50;;;8.11;96.81
40850;BME280;26571;41.610;25.380;2022-11-30T11:59:01;98644.34;;;8.13;96.62
40850;BME280;26571;41.610;25.380;2022-11-30T12:06:56;98631.41;;;8.11;96.66
40850;BME280;26571;41.610;25.380;2022-11-30T12:09:28;98603.16;;;7.95;96.74
40850;BME280;26571;41.610;25.380;2022-11-30T12:11:54;98631.41;;;8.11;97.38
40850;BME280;26571;41.610;25.380;2022-11-30T12:14:20;98629.69;;;7.92;96.79
40850;BME280;26571;41.610;25.380;2022-11-30T12:17:20;98644.50;;;8.11;97.38
40850;BME280;26571;41.610;25.380;2022-11-30T12:20:16;98639.66;;;8.16;96.96
40850;BME280;26571;41.610;25.380;2022-11-30T12:25:26;98632.22;;;8.12;97.27
40850;BME280;26571;41.610;25.380;2022-11-30T12:39:19;98648.00;;;8.02;96.98
40850;BME280;26571;41.610;25.380;2022-11-30T12:41:53;98651.72;;;7.99;97.51
40850;BME280;26571;41.610;25.380;2022-11-30T12:44:40;98650.31;;;8.05;97.73
40850;BME280;26571;41.610;25.380;2022-11-30T12:47:34;98641.91;;;8.01;98.14
40850;BME280;26571;41.610;25.380;2022-11-30T13:06:38;98650.31;;;8.05;97.34
40850;BME280;26571;41.610;25.380;2022-11-30T13:11:45;98651.00;;;8.07;97.68
40850;BME280;26571;41.610;25.380;2022-11-30T13:14:15;98659.28;;;8.02;98.02
40850;BME280;26571;41.610;25.380;2022-11-30T13:16:45;98654.28;;;8.09;98.10
40850;BME280;26571;41.610;25.380;2022-11-30T13:19:28;98656.31;;;8.15;97.93
40850;BME280;26571;41.610;25.380;2022-11-30T13:22:05;98649.03;;;8.09;97.83
40850;BME280;26571;41.610;25.380;2022-11-30T13:24:39;98656.19;;;8.17;97.52
40850;BME280;26571;41.610;25.380;2022-11-30T13:27:20;98657.84;;;8.18;97.40
40850;BME280;26571;41.610;25.380;2022-11-30T13:30:12;98648.19;;;8.18;97.56
40850;BME280;26571;41.610;25.380;2022-11-30T13:32:43;98657.03;;;8.17;97.68
40850;BME280;26571;41.610;25.380;2022-11-30T13:38:15;98656.19;;;8.17;98.16
40850;BME280;26571;41.610;25.380;2022-11-30T13:40:40;98659.66;;;8.17;97.87
40850;BME280;26571;41.610;25.380;2022-11-30T13:43:14;98652.66;;;8.08;97.72
40850;BME280;26571;41.610;25.380;2022-11-30T13:45:41;98654.06;;;8.02;98.61
40850;BME280;26571;41.610;25.380;2022-11-30T13:48:29;98624.22;;;7.76;98.66
40850;BME280;26571;41.610;25.380;2022-11-30T13:50:56;98619.91;;;7.85;98.25
40850;BME280;26571;41.610;25.380;2022-11-30T13:53:26;98662.16;;;8.09;98.03
40850;BME280;26571;41.610;25.380;2022-11-30T13:59:30;98660.50;;;8.08;98.70
40850;BME280;26571;41.610;25.380;2022-11-30T14:07:44;98659.69;;;8.08;99.54
40850;BME280;26571;41.610;25.380;2022-11-30T14:10:36;98647.69;;;8.05;99.22
40850;BME280;26571;41.610;25.380;2022-11-30T14:26:10;98661.97;;;8.20;98.94
40850;BME280;26571;41.610;25.380;2022-11-30T14:31:12;98662.50;;;8.24;98.18
40850;BME280;26571;41.610;25.380;2022-11-30T14:33:55;98653.16;;;8.21;98.18
40850;BME280;26571;41.610;25.380;2022-11-30T14:36:24;98659.22;;;8.22;98.15
40850;BME280;26571;41.610;25.380;2022-11-30T14:38:51;98656.72;;;8.20;98.31
40850;BME280;26571;41.610;25.380;2022-11-30T14:41:25;98663.63;;;8.21;97.64
40850;BME280;26571;41.610;25.380;2022-11-30T14:46:26;98631.13;;;8.04;97.28
40850;BME280;26571;41.610;25.380;2022-11-30T14:51:41;98662.28;;;8.17;97.96
40850;BME280;26571;41.610;25.380;2022-11-30T14:54:17;98626.91;;;7.94;98.15
40850;BME280;26571;41.610;25.380;2022-11-30T14:56:49;98669.44;;;8.15;98.22
40850;BME280;26571;41.610;25.380;2022-11-30T14:59:29;98663.69;;;8.12;98.46
40850;BME280;26571;41.610;25.380;2022-11-30T15:02:01;98666.81;;;8.15;98.52
40850;BME280;26571;41.610;25.380;2022-11-30T15:04:28;98666.81;;;8.15;98.27
40850;BME280;26571;41.610;25.380;2022-11-30T15:06:55;98666.41;;;8.10;98.44
40850;BME280;26571;41.610;25.380;2022-11-30T15:09:27;98667.50;;;8.17;97.72
40850;BME280;26571;41.610;25.380;2022-11-30T15:11:53;98668.06;;;8.21;98.04
40850;BME280;26571;41.610;25.380;2022-11-30T15:14:20;98674.94;;;8.22;97.91
40850;BME280;26571;41.610;25.380;2022-11-30T15:16:51;98671.34;;;8.23;98.15
40850;BME280;26571;41.610;25.380;2022-11-30T15:19:28;98654.56;;;8.16;97.69